sensor_id;sensor_type;location;lat;lon;timestamp;P1;durP1;ratioP1;P2;durP2;ratioP2
47155;SDS011;32908;52.344;16.858;2022-12-08T00:02:26;17.83;;;7.37;;
47155;SDS011;32908;52.344;16.858;2022-12-08T00:04:54;15.83;;;7.73;;
47155;SDS011;32908;52.344;16.858;2022-12-08T00:07:39;15.77;;;7.33;;
47155;SDS011;32908;52.344;16.858;2022-12-08T00:10:25;16.93;;;8.10;;
47155;SDS011;32908;52.344;16.858;2022-12-08T00:12:53;22.77;;;9.67;;
47155;SDS011;32908;52.344;16.858;2022-12-08T00:15:21;21.87;;;8.23;;
47155;SDS011;32908;52.344;16.858;2022-12-08T00:17:49;19.60;;;8.30;;
47155;SDS011;32908;52.344;16.858;2022-12-08T00:20:17;18.27;;;8.47;;
47155;SDS011;32908;52.344;16.858;2022-12-08T00:22:45;14.27;;;7.40;;
47155;SDS011;32908;52.344;16.858;2022-12-08T00:25:13;17.83;;;7.90;;
47155;SDS011;32908;52.344;16.858;2022-12-08T00:27:41;13.70;;;6.57;;
47155;SDS011;32908;52.344;16.858;2022-12-08T00:30:09;17.20;;;7.63;;
47155;SDS011;32908;52.344;16.858;2022-12-08T00:32:38;22.03;;;9.00;;
47155;SDS011;32908;52.344;16.858;2022-12-08T00:35:06;18.10;;;7.63;;
47155;SDS011;32908;52.344;16.858;2022-12-08T00:37:34;16.80;;;8.10;;
47155;SDS011;32908;52.344;16.858;2022-12-08T00:40:03;17.97;;;7.93;;
47155;SDS011;32908;52.344;16.858;2022-12-08T00:42:32;14.97;;;7.53;;
47155;SDS011;32908;52.344;16.858;2022-12-08T00:45:00;17.83;;;8.23;;
47155;SDS011;32908;52.344;16.858;2022-12-08T00:47:28;13.57;;;6.77;;
47155;SDS011;32908;52.344;16.858;2022-12-08T00:49:56;15.57;;;6.23;;
47155;SDS011;32908;52.344;16.858;2022-12-08T00:52:24;13.73;;;6.07;;
47155;SDS011;32908;52.344;16.858;2022-12-08T00:54:52;13.27;;;6.53;;
47155;SDS011;32908;52.344;16.858;2022-12-08T00:57:20;12.70;;;6.00;;
47155;SDS011;32908;52.344;16.858;2022-12-08T00:59:47;15.50;;;6.13;;
47155;SDS011;32908;52.344;16.858;2022-12-08T01:02:15;15.90;;;5.57;;
47155;SDS011;32908;52.344;16.858;2022-12-08T01:04:44;12.47;;;5.17;;
47155;SDS011;32908;52.344;16.858;2022-12-08T01:07:12;12.83;;;5.93;;
47155;SDS011;32908;52.344;16.858;2022-12-08T01:09:40;9.27;;;5.43;;
47155;SDS011;32908;52.344;16.858;2022-12-08T01:12:08;11.03;;;6.20;;
47155;SDS011;32908;52.344;16.858;2022-12-08T01:14:36;10.17;;;5.27;;
47155;SDS011;32908;52.344;16.858;2022-12-08T01:17:04;9.53;;;5.50;;
47155;SDS011;32908;52.344;16.858;2022-12-08T01:19:32;10.80;;;6.00;;
47155;SDS011;32908;52.344;16.858;2022-12-08T01:21:59;8.67;;;4.90;;
47155;SDS011;32908;52.344;16.858;2022-12-08T01:24:27;12.67;;;5.90;;
47155;SDS011;32908;52.344;16.858;2022-12-08T01:26:55;8.53;;;5.33;;
47155;SDS011;32908;52.344;16.858;2022-12-08T01:29:23;11.13;;;5.10;;
47155;SDS011;32908;52.344;16.858;2022-12-08T01:31:51;9.97;;;5.30;;
47155;SDS011;32908;52.344;16.858;2022-12-08T01:34:19;11.50;;;5.30;;
47155;SDS011;32908;52.344;16.858;2022-12-08T01:36:47;9.33;;;5.43;;
47155;SDS011;32908;52.344;16.858;2022-12-08T01:39:16;9.17;;;5.27;;
47155;SDS011;32908;52.344;16.858;2022-12-08T01:41:45;11.67;;;5.57;;
47155;SDS011;32908;52.344;16.858;2022-12-08T01:47:17;10.87;;;5.80;;
47155;SDS011;32908;52.344;16.858;2022-12-08T01:49:45;8.73;;;4.90;;
47155;SDS011;32908;52.344;16.858;2022-12-08T01:52:14;11.20;;;5.40;;
47155;SDS011;32908;52.344;16.858;2022-12-08T01:54:46;12.37;;;5.77;;
47155;SDS011;32908;52.344;16.858;2022-12-08T01:57:17;10.87;;;5.90;;
47155;SDS011;32908;52.344;16.858;2022-12-08T01:59:49;11.70;;;5.47;;
47155;SDS011;32908;52.344;16.858;2022-12-08T02:02:22;10.13;;;5.73;;
47155;SDS011;32908;52.344;16.858;2022-12-08T02:04:50;8.57;;;5.07;;
47155;SDS011;32908;52.344;16.858;2022-12-08T02:07:18;11.33;;;5.53;;
47155;SDS011;32908;52.344;16.858;2022-12-08T02:09:47;10.70;;;5.13;;
47155;SDS011;32908;52.344;16.858;2022-12-08T02:12:15;7.70;;;4.70;;
47155;SDS011;32908;52.344;16.858;2022-12-08T02:14:42;10.20;;;5.23;;
47155;SDS011;32908;52.344;16.858;2022-12-08T02:17:14;8.03;;;4.70;;
47155;SDS011;32908;52.344;16.858;2022-12-08T02:19:53;11.47;;;5.00;;
47155;SDS011;32908;52.344;16.858;2022-12-08T02:22:32;10.07;;;4.63;;
47155;SDS011;32908;52.344;16.858;2022-12-08T02:25:06;11.17;;;5.60;;
47155;SDS011;32908;52.344;16.858;2022-12-08T02:27:38;8.30;;;4.57;;
47155;SDS011;32908;52.344;16.858;2022-12-08T02:30:19;7.47;;;4.67;;
47155;SDS011;32908;52.344;16.858;2022-12-08T02:33:03;9.90;;;4.60;;
47155;SDS011;32908;52.344;16.858;2022-12-08T02:35:43;9.73;;;4.33;;
47155;SDS011;32908;52.344;16.858;2022-12-08T02:38:16;7.87;;;5.17;;
47155;SDS011;32908;52.344;16.858;2022-12-08T02:40:49;9.90;;;4.83;;
47155;SDS011;32908;52.344;16.858;2022-12-08T02:43:21;11.73;;;4.67;;
47155;SDS011;32908;52.344;16.858;2022-12-08T02:45:52;9.17;;;4.70;;
47155;SDS011;32908;52.344;16.858;2022-12-08T02:48:22;7.83;;;5.07;;
47155;SDS011;32908;52.344;16.858;2022-12-08T02:50:52;8.43;;;4.43;;
47155;SDS011;32908;52.344;16.858;2022-12-08T02:53:20;9.90;;;5.40;;
47155;SDS011;32908;52.344;16.858;2022-12-08T02:55:50;10.70;;;5.30;;
47155;SDS011;32908;52.344;16.858;2022-12-08T02:58:28;9.17;;;5.40;;
47155;SDS011;32908;52.344;16.858;2022-12-08T06:46:08;25.40;;;15.97;;
47155;SDS011;32908;52.344;16.858;2022-12-08T06:48:38;31.50;;;18.90;;
47155;SDS011;32908;52.344;16.858;2022-12-08T06:51:07;31.27;;;18.60;;
47155;SDS011;32908;52.344;16.858;2022-12-08T06:53:35;32.83;;;18.40;;
47155;SDS011;32908;52.344;16.858;2022-12-08T06:56:04;31.57;;;18.00;;
47155;SDS011;32908;52.344;16.858;2022-12-08T06:58:32;27.57;;;17.27;;
47155;SDS011;32908;52.344;16.858;2022-12-08T07:01:03;30.37;;;17.43;;
47155;SDS011;32908;52.344;16.858;2022-12-08T07:03:32;33.27;;;17.57;;
47155;SDS011;32908;52.344;16.858;2022-12-08T07:06:00;27.27;;;16.57;;
47155;SDS011;32908;52.344;16.858;2022-12-08T07:08:28;28.23;;;16.33;;
47155;SDS011;32908;52.344;16.858;2022-12-08T07:10:56;28.53;;;16.87;;
47155;SDS011;32908;52.344;16.858;2022-12-08T07:13:24;27.50;;;15.73;;
47155;SDS011;32908;52.344;16.858;2022-12-08T07:15:51;28.07;;;15.63;;
47155;SDS011;32908;52.344;16.858;2022-12-08T07:18:19;25.00;;;14.63;;
47155;SDS011;32908;52.344;16.858;2022-12-08T07:20:47;25.90;;;15.47;;
47155;SDS011;32908;52.344;16.858;2022-12-08T07:23:15;22.97;;;14.10;;
47155;SDS011;32908;52.344;16.858;2022-12-08T07:25:43;29.53;;;15.30;;
47155;SDS011;32908;52.344;16.858;2022-12-08T07:28:11;25.73;;;14.70;;
47155;SDS011;32908;52.344;16.858;2022-12-08T07:30:39;26.37;;;15.00;;
47155;SDS011;32908;52.344;16.858;2022-12-08T07:33:07;27.13;;;15.63;;
47155;SDS011;32908;52.344;16.858;2022-12-08T07:35:34;27.73;;;15.60;;
47155;SDS011;32908;52.344;16.858;2022-12-08T07:38:02;30.33;;;16.43;;
47155;SDS011;32908;52.344;16.858;2022-12-08T07:40:30;23.73;;;14.33;;
47155;SDS011;32908;52.344;16.858;2022-12-08T07:42:58;28.27;;;16.37;;
47155;SDS011;32908;52.344;16.858;2022-12-08T07:45:26;27.60;;;14.80;;
47155;SDS011;32908;52.344;16.858;2022-12-08T07:47:54;27.67;;;15.63;;
47155;SDS011;32908;52.344;16.858;2022-12-08T07:50:22;23.43;;;14.57;;
47155;SDS011;32908;52.344;16.858;2022-12-08T07:52:50;25.67;;;14.40;;
47155;SDS011;32908;52.344;16.858;2022-12-08T07:55:17;28.40;;;14.63;;
47155;SDS011;32908;52.344;16.858;2022-12-08T07:57:45;26.70;;;14.47;;
47155;SDS011;32908;52.344;16.858;2022-12-08T08:00:14;24.90;;;14.10;;
47155;SDS011;32908;52.344;16.858;2022-12-08T08:02:43;27.87;;;15.60;;
47155;SDS011;32908;52.344;16.858;2022-12-08T08:05:11;23.17;;;13.37;;
47155;SDS011;32908;52.344;16.858;2022-12-08T08:07:39;26.20;;;13.97;;
47155;SDS011;32908;52.344;16.858;2022-12-08T08:10:10;22.20;;;12.77;;
47155;SDS011;32908;52.344;16.858;2022-12-08T08:12:38;20.83;;;12.43;;
47155;SDS011;32908;52.344;16.858;2022-12-08T08:15:08;23.50;;;13.40;;
47155;SDS011;32908;52.344;16.858;2022-12-08T08:17:36;22.83;;;13.00;;
47155;SDS011;32908;52.344;16.858;2022-12-08T08:20:05;24.53;;;12.30;;
47155;SDS011;32908;52.344;16.858;2022-12-08T08:22:34;19.37;;;11.87;;
47155;SDS011;32908;52.344;16.858;2022-12-08T08:25:02;20.40;;;11.47;;
47155;SDS011;32908;52.344;16.858;2022-12-08T08:27:31;22.40;;;12.13;;
47155;SDS011;32908;52.344;16.858;2022-12-08T08:29:59;19.53;;;12.60;;
47155;SDS011;32908;52.344;16.858;2022-12-08T08:32:26;18.30;;;12.37;;
47155;SDS011;32908;52.344;16.858;2022-12-08T08:34:54;22.30;;;12.60;;
47155;SDS011;32908;52.344;16.858;2022-12-08T08:37:22;22.40;;;12.87;;
47155;SDS011;32908;52.344;16.858;2022-12-08T08:39:50;14.70;;;10.60;;
47155;SDS011;32908;52.344;16.858;2022-12-08T08:42:18;18.57;;;11.90;;
47155;SDS011;32908;52.344;16.858;2022-12-08T08:44:46;16.40;;;11.07;;
47155;SDS011;32908;52.344;16.858;2022-12-08T08:47:14;15.50;;;10.77;;
47155;SDS011;32908;52.344;16.858;2022-12-08T08:49:42;17.17;;;10.93;;
47155;SDS011;32908;52.344;16.858;2022-12-08T08:52:09;18.57;;;12.13;;
47155;SDS011;32908;52.344;16.858;2022-12-08T08:54:37;19.27;;;11.60;;
47155;SDS011;32908;52.344;16.858;2022-12-08T08:57:05;18.17;;;12.07;;
47155;SDS011;32908;52.344;16.858;2022-12-08T08:59:34;16.77;;;11.57;;
47155;SDS011;32908;52.344;16.858;2022-12-08T09:02:02;15.00;;;10.13;;
47155;SDS011;32908;52.344;16.858;2022-12-08T09:04:30;16.70;;;11.00;;
47155;SDS011;32908;52.344;16.858;2022-12-08T09:06:57;17.90;;;11.80;;
47155;SDS011;32908;52.344;16.858;2022-12-08T09:09:25;16.53;;;11.10;;
47155;SDS011;32908;52.344;16.858;2022-12-08T09:11:53;14.43;;;10.57;;
47155;SDS011;32908;52.344;16.858;2022-12-08T09:14:21;16.13;;;10.87;;
47155;SDS011;32908;52.344;16.858;2022-12-08T09:16:49;14.47;;;11.10;;
47155;SDS011;32908;52.344;16.858;2022-12-08T09:19:17;14.03;;;10.60;;
47155;SDS011;32908;52.344;16.858;2022-12-08T09:21:45;15.77;;;11.10;;
47155;SDS011;32908;52.344;16.858;2022-12-08T09:24:13;15.53;;;10.73;;
47155;SDS011;32908;52.344;16.858;2022-12-08T09:26:42;15.00;;;10.93;;
47155;SDS011;32908;52.344;16.858;2022-12-08T09:29:10;18.37;;;11.43;;
47155;SDS011;32908;52.344;16.858;2022-12-08T09:31:40;16.70;;;11.27;;
47155;SDS011;32908;52.344;16.858;2022-12-08T09:34:08;16.37;;;11.07;;
47155;SDS011;32908;52.344;16.858;2022-12-08T09:36:36;14.10;;;10.23;;
47155;SDS011;32908;52.344;16.858;2022-12-08T09:39:04;19.60;;;11.93;;
47155;SDS011;32908;52.344;16.858;2022-12-08T09:41:33;17.73;;;10.93;;
47155;SDS011;32908;52.344;16.858;2022-12-08T09:44:04;16.47;;;10.67;;
47155;SDS011;32908;52.344;16.858;2022-12-08T09:46:39;17.73;;;10.80;;
47155;SDS011;32908;52.344;16.858;2022-12-08T09:49:11;15.93;;;9.83;;
47155;SDS011;32908;52.344;16.858;2022-12-08T09:51:40;14.80;;;9.97;;
47155;SDS011;32908;52.344;16.858;2022-12-08T09:54:12;15.00;;;9.97;;
47155;SDS011;32908;52.344;16.858;2022-12-08T09:56:45;20.17;;;10.90;;
47155;SDS011;32908;52.344;16.858;2022-12-08T09:59:21;17.60;;;10.23;;
47155;SDS011;32908;52.344;16.858;2022-12-08T10:01:50;14.33;;;9.98;;
47155;SDS011;32908;52.344;16.858;2022-12-08T10:04:21;18.27;;;10.40;;
47155;SDS011;32908;52.344;16.858;2022-12-08T10:06:53;18.27;;;10.60;;
47155;SDS011;32908;52.344;16.858;2022-12-08T10:09:27;17.90;;;11.13;;
47155;SDS011;32908;52.344;16.858;2022-12-08T10:12:02;15.67;;;10.17;;
47155;SDS011;32908;52.344;16.858;2022-12-08T10:14:36;16.20;;;9.90;;
47155;SDS011;32908;52.344;16.858;2022-12-08T10:17:09;15.93;;;10.03;;
47155;SDS011;32908;52.344;16.858;2022-12-08T10:19:41;16.93;;;10.67;;
47155;SDS011;32908;52.344;16.858;2022-12-08T10:22:11;18.87;;;10.63;;
47155;SDS011;32908;52.344;16.858;2022-12-08T10:24:44;17.60;;;10.53;;
47155;SDS011;32908;52.344;16.858;2022-12-08T10:27:18;19.33;;;10.63;;
47155;SDS011;32908;52.344;16.858;2022-12-08T10:29:46;15.03;;;10.23;;
47155;SDS011;32908;52.344;16.858;2022-12-08T10:32:16;16.53;;;9.87;;
47155;SDS011;32908;52.344;16.858;2022-12-08T10:34:58;14.40;;;10.27;;
47155;SDS011;32908;52.344;16.858;2022-12-08T10:37:31;19.30;;;11.23;;
47155;SDS011;32908;52.344;16.858;2022-12-08T10:40:00;15.60;;;9.97;;
47155;SDS011;32908;52.344;16.858;2022-12-08T10:42:35;16.57;;;10.33;;
47155;SDS011;32908;52.344;16.858;2022-12-08T10:45:20;17.87;;;10.70;;
47155;SDS011;32908;52.344;16.858;2022-12-08T10:47:57;15.80;;;11.10;;
47155;SDS011;32908;52.344;16.858;2022-12-08T10:50:28;18.47;;;11.07;;
47155;SDS011;32908;52.344;16.858;2022-12-08T10:52:59;17.33;;;10.50;;
47155;SDS011;32908;52.344;16.858;2022-12-08T10:55:28;15.30;;;10.10;;
47155;SDS011;32908;52.344;16.858;2022-12-08T10:57:56;15.87;;;10.13;;
47155;SDS011;32908;52.344;16.858;2022-12-08T11:00:25;18.27;;;11.37;;
47155;SDS011;32908;52.344;16.858;2022-12-08T11:02:55;17.47;;;11.10;;
47155;SDS011;32908;52.344;16.858;2022-12-08T11:05:26;16.23;;;10.83;;
47155;SDS011;32908;52.344;16.858;2022-12-08T11:07:55;15.77;;;10.87;;
47155;SDS011;32908;52.344;16.858;2022-12-08T11:10:33;20.35;;;11.90;;
47155;SDS011;32908;52.344;16.858;2022-12-08T11:13:03;23.87;;;11.77;;
47155;SDS011;32908;52.344;16.858;2022-12-08T11:15:33;21.67;;;14.50;;
47155;SDS011;32908;52.344;16.858;2022-12-08T11:18:06;19.13;;;13.00;;
47155;SDS011;32908;52.344;16.858;2022-12-08T11:20:44;20.27;;;12.77;;
47155;SDS011;32908;52.344;16.858;2022-12-08T11:23:18;20.30;;;12.13;;
47155;SDS011;32908;52.344;16.858;2022-12-08T11:25:48;19.10;;;11.47;;
47155;SDS011;32908;52.344;16.858;2022-12-08T11:28:17;20.00;;;12.70;;
47155;SDS011;32908;52.344;16.858;2022-12-08T11:30:48;18.67;;;12.50;;
47155;SDS011;32908;52.344;16.858;2022-12-08T11:33:21;20.03;;;11.90;;
47155;SDS011;32908;52.344;16.858;2022-12-08T11:35:51;16.03;;;11.80;;
47155;SDS011;32908;52.344;16.858;2022-12-08T11:38:22;18.53;;;12.50;;
47155;SDS011;32908;52.344;16.858;2022-12-08T11:40:52;18.97;;;12.57;;
47155;SDS011;32908;52.344;16.858;2022-12-08T11:43:22;18.25;;;11.05;;
47155;SDS011;32908;52.344;16.858;2022-12-08T11:45:55;18.00;;;11.60;;
47155;SDS011;32908;52.344;16.858;2022-12-08T11:48:28;19.43;;;11.33;;
47155;SDS011;32908;52.344;16.858;2022-12-08T11:51:01;17.10;;;11.90;;
47155;SDS011;32908;52.344;16.858;2022-12-08T11:53:34;18.70;;;11.90;;
47155;SDS011;32908;52.344;16.858;2022-12-08T11:56:09;17.47;;;11.70;;
47155;SDS011;32908;52.344;16.858;2022-12-08T11:58:44;17.07;;;11.53;;
47155;SDS011;32908;52.344;16.858;2022-12-08T12:01:15;16.07;;;11.30;;
47155;SDS011;32908;52.344;16.858;2022-12-08T12:03:47;18.07;;;10.67;;
47155;SDS011;32908;52.344;16.858;2022-12-08T12:06:24;17.87;;;11.13;;
47155;SDS011;32908;52.344;16.858;2022-12-08T12:09:10;16.73;;;10.97;;
47155;SDS011;32908;52.344;16.858;2022-12-08T12:11:42;15.67;;;11.20;;
47155;SDS011;32908;52.344;16.858;2022-12-08T12:14:40;18.47;;;10.10;;
47155;SDS011;32908;52.344;16.858;2022-12-08T12:17:21;13.83;;;10.37;;
47155;SDS011;32908;52.344;16.858;2022-12-08T12:19:58;15.30;;;10.80;;
47155;SDS011;32908;52.344;16.858;2022-12-08T12:22:30;15.53;;;10.47;;
47155;SDS011;32908;52.344;16.858;2022-12-08T12:25:00;16.60;;;11.03;;
47155;SDS011;32908;52.344;16.858;2022-12-08T12:27:30;15.83;;;11.20;;
47155;SDS011;32908;52.344;16.858;2022-12-08T12:30:02;17.77;;;11.73;;
47155;SDS011;32908;52.344;16.858;2022-12-08T12:32:40;15.83;;;11.00;;
47155;SDS011;32908;52.344;16.858;2022-12-08T12:35:13;17.90;;;11.73;;
47155;SDS011;32908;52.344;16.858;2022-12-08T12:37:42;16.87;;;10.60;;
47155;SDS011;32908;52.344;16.858;2022-12-08T12:40:14;16.93;;;11.57;;
47155;SDS011;32908;52.344;16.858;2022-12-08T12:42:45;17.13;;;12.13;;
47155;SDS011;32908;52.344;16.858;2022-12-08T12:45:23;17.20;;;11.57;;
47155;SDS011;32908;52.344;16.858;2022-12-08T12:50:48;16.83;;;11.00;;
47155;SDS011;32908;52.344;16.858;2022-12-08T12:59:21;19.13;;;11.77;;
47155;SDS011;32908;52.344;16.858;2022-12-08T13:01:58;16.90;;;11.67;;
47155;SDS011;32908;52.344;16.858;2022-12-08T13:04:28;16.23;;;11.43;;
47155;SDS011;32908;52.344;16.858;2022-12-08T13:06:58;17.90;;;11.40;;
47155;SDS011;32908;52.344;16.858;2022-12-08T13:09:27;17.77;;;12.57;;
47155;SDS011;32908;52.344;16.858;2022-12-08T13:11:58;18.67;;;12.00;;
47155;SDS011;32908;52.344;16.858;2022-12-08T13:14:28;18.17;;;11.93;;
47155;SDS011;32908;52.344;16.858;2022-12-08T13:16:58;18.87;;;13.20;;
47155;SDS011;32908;52.344;16.858;2022-12-08T13:19:29;20.77;;;12.23;;
47155;SDS011;32908;52.344;16.858;2022-12-08T13:21:59;16.20;;;11.53;;
47155;SDS011;32908;52.344;16.858;2022-12-08T13:24:28;18.17;;;12.30;;
47155;SDS011;32908;52.344;16.858;2022-12-08T13:33:10;17.33;;;11.43;;
47155;SDS011;32908;52.344;16.858;2022-12-08T13:35:43;17.03;;;12.03;;
47155;SDS011;32908;52.344;16.858;2022-12-08T13:38:14;16.70;;;11.67;;
47155;SDS011;32908;52.344;16.858;2022-12-08T13:40:45;17.83;;;12.40;;
47155;SDS011;32908;52.344;16.858;2022-12-08T13:43:15;15.93;;;11.70;;
47155;SDS011;32908;52.344;16.858;2022-12-08T13:45:45;16.33;;;11.67;;
47155;SDS011;32908;52.344;16.858;2022-12-08T13:48:15;17.03;;;12.23;;
47155;SDS011;32908;52.344;16.858;2022-12-08T13:50:49;18.70;;;11.50;;
47155;SDS011;32908;52.344;16.858;2022-12-08T13:53:20;18.97;;;12.33;;
47155;SDS011;32908;52.344;16.858;2022-12-08T13:55:50;21.47;;;12.67;;
47155;SDS011;32908;52.344;16.858;2022-12-08T13:58:24;21.23;;;13.20;;
47155;SDS011;32908;52.344;16.858;2022-12-08T14:00:54;20.83;;;12.97;;
47155;SDS011;32908;52.344;16.858;2022-12-08T14:03:26;21.67;;;13.23;;
47155;SDS011;32908;52.344;16.858;2022-12-08T14:05:54;18.10;;;12.13;;
47155;SDS011;32908;52.344;16.858;2022-12-08T14:08:23;21.37;;;12.67;;
47155;SDS011;32908;52.344;16.858;2022-12-08T14:10:57;15.43;;;11.33;;
47155;SDS011;32908;52.344;16.858;2022-12-08T14:13:27;17.17;;;11.53;;
47155;SDS011;32908;52.344;16.858;2022-12-08T14:15:56;16.30;;;11.10;;
47155;SDS011;32908;52.344;16.858;2022-12-08T14:18:25;15.47;;;10.43;;
47155;SDS011;32908;52.344;16.858;2022-12-08T14:21:01;18.70;;;12.27;;
47155;SDS011;32908;52.344;16.858;2022-12-08T14:23:33;21.37;;;12.00;;
47155;SDS011;32908;52.344;16.858;2022-12-08T14:26:02;16.20;;;10.63;;
47155;SDS011;32908;52.344;16.858;2022-12-08T14:28:32;17.17;;;11.17;;
47155;SDS011;32908;52.344;16.858;2022-12-08T14:31:00;15.43;;;10.40;;
47155;SDS011;32908;52.344;16.858;2022-12-08T14:33:29;17.40;;;10.63;;
47155;SDS011;32908;52.344;16.858;2022-12-08T14:35:57;14.53;;;10.10;;
47155;SDS011;32908;52.344;16.858;2022-12-08T14:38:25;16.70;;;10.67;;
47155;SDS011;32908;52.344;16.858;2022-12-08T14:41:03;16.07;;;10.50;;
47155;SDS011;32908;52.344;16.858;2022-12-08T16:28:18;19.57;;;12.77;;
47155;SDS011;32908;52.344;16.858;2022-12-08T16:30:46;23.57;;;14.23;;
47155;SDS011;32908;52.344;16.858;2022-12-08T16:33:14;21.77;;;13.43;;
47155;SDS011;32908;52.344;16.858;2022-12-08T16:35:42;23.10;;;13.07;;
47155;SDS011;32908;52.344;16.858;2022-12-08T16:38:12;24.23;;;14.33;;
47155;SDS011;32908;52.344;16.858;2022-12-08T16:40:43;28.73;;;18.13;;
47155;SDS011;32908;52.344;16.858;2022-12-08T16:43:31;35.03;;;20.03;;
47155;SDS011;32908;52.344;16.858;2022-12-08T16:45:59;33.10;;;18.13;;
47155;SDS011;32908;52.344;16.858;2022-12-08T16:48:27;29.83;;;17.77;;
47155;SDS011;32908;52.344;16.858;2022-12-08T16:50:55;34.40;;;18.10;;
47155;SDS011;32908;52.344;16.858;2022-12-08T16:53:23;33.40;;;17.93;;
47155;SDS011;32908;52.344;16.858;2022-12-08T16:55:51;31.70;;;18.17;;
47155;SDS011;32908;52.344;16.858;2022-12-08T16:58:19;30.57;;;17.90;;
47155;SDS011;32908;52.344;16.858;2022-12-08T17:00:47;29.87;;;17.47;;
47155;SDS011;32908;52.344;16.858;2022-12-08T17:03:15;28.33;;;16.07;;
47155;SDS011;32908;52.344;16.858;2022-12-08T17:05:43;26.13;;;15.47;;
47155;SDS011;32908;52.344;16.858;2022-12-08T17:08:10;24.87;;;15.90;;
47155;SDS011;32908;52.344;16.858;2022-12-08T17:10:39;23.20;;;15.00;;
47155;SDS011;32908;52.344;16.858;2022-12-08T17:13:07;23.07;;;14.13;;
47155;SDS011;32908;52.344;16.858;2022-12-08T17:15:36;24.20;;;14.20;;
47155;SDS011;32908;52.344;16.858;2022-12-08T17:18:04;24.70;;;14.83;;
47155;SDS011;32908;52.344;16.858;2022-12-08T17:20:32;22.13;;;13.53;;
47155;SDS011;32908;52.344;16.858;2022-12-08T17:23:01;24.57;;;13.63;;
47155;SDS011;32908;52.344;16.858;2022-12-08T17:25:29;20.67;;;13.17;;
47155;SDS011;32908;52.344;16.858;2022-12-08T17:27:57;23.93;;;13.20;;
47155;SDS011;32908;52.344;16.858;2022-12-08T17:30:25;18.63;;;12.47;;
47155;SDS011;32908;52.344;16.858;2022-12-08T17:32:52;20.33;;;12.90;;
47155;SDS011;32908;52.344;16.858;2022-12-08T17:35:20;19.70;;;12.27;;
47155;SDS011;32908;52.344;16.858;2022-12-08T17:37:48;20.53;;;13.33;;
47155;SDS011;32908;52.344;16.858;2022-12-08T17:40:16;21.53;;;12.73;;
47155;SDS011;32908;52.344;16.858;2022-12-08T17:42:44;19.60;;;13.23;;
47155;SDS011;32908;52.344;16.858;2022-12-08T17:45:12;20.33;;;12.33;;
47155;SDS011;32908;52.344;16.858;2022-12-08T17:47:40;19.57;;;12.77;;
47155;SDS011;32908;52.344;16.858;2022-12-08T17:50:08;19.80;;;12.97;;
47155;SDS011;32908;52.344;16.858;2022-12-08T17:52:36;21.43;;;12.83;;
47155;SDS011;32908;52.344;16.858;2022-12-08T17:55:04;18.90;;;12.53;;
47155;SDS011;32908;52.344;16.858;2022-12-08T17:57:33;17.33;;;11.93;;
47155;SDS011;32908;52.344;16.858;2022-12-08T18:00:02;20.50;;;12.37;;
47155;SDS011;32908;52.344;16.858;2022-12-08T18:02:31;18.43;;;11.93;;
47155;SDS011;32908;52.344;16.858;2022-12-08T18:05:00;19.25;;;13.30;;
47155;SDS011;32908;52.344;16.858;2022-12-08T18:07:28;19.17;;;12.53;;
47155;SDS011;32908;52.344;16.858;2022-12-08T18:09:56;18.37;;;12.27;;
47155;SDS011;32908;52.344;16.858;2022-12-08T18:12:24;18.63;;;12.13;;
47155;SDS011;32908;52.344;16.858;2022-12-08T18:14:52;17.93;;;12.10;;
47155;SDS011;32908;52.344;16.858;2022-12-08T18:17:20;21.90;;;13.13;;
47155;SDS011;32908;52.344;16.858;2022-12-08T18:19:48;19.53;;;12.87;;
47155;SDS011;32908;52.344;16.858;2022-12-08T18:22:15;19.93;;;12.77;;
47155;SDS011;32908;52.344;16.858;2022-12-08T18:24:43;19.37;;;12.90;;
47155;SDS011;32908;52.344;16.858;2022-12-08T18:27:12;17.90;;;12.53;;
47155;SDS011;32908;52.344;16.858;2022-12-08T18:29:41;19.50;;;12.63;;
47155;SDS011;32908;52.344;16.858;2022-12-08T18:32:08;18.20;;;11.83;;
47155;SDS011;32908;52.344;16.858;2022-12-08T18:34:36;18.03;;;12.10;;
47155;SDS011;32908;52.344;16.858;2022-12-08T18:37:04;16.83;;;11.73;;
47155;SDS011;32908;52.344;16.858;2022-12-08T18:39:34;18.70;;;12.27;;
47155;SDS011;32908;52.344;16.858;2022-12-08T18:42:03;20.60;;;12.70;;
47155;SDS011;32908;52.344;16.858;2022-12-08T18:44:48;18.67;;;12.40;;
47155;SDS011;32908;52.344;16.858;2022-12-08T18:47:16;19.83;;;12.50;;
47155;SDS011;32908;52.344;16.858;2022-12-08T18:49:44;17.83;;;12.57;;
47155;SDS011;32908;52.344;16.858;2022-12-08T18:52:12;17.53;;;12.37;;
47155;SDS011;32908;52.344;16.858;2022-12-08T18:54:40;19.03;;;12.97;;
47155;SDS011;32908;52.344;16.858;2022-12-08T18:57:08;18.67;;;12.47;;
47155;SDS011;32908;52.344;16.858;2022-12-08T18:59:36;19.60;;;13.00;;
47155;SDS011;32908;52.344;16.858;2022-12-08T19:02:04;19.43;;;12.77;;
47155;SDS011;32908;52.344;16.858;2022-12-08T19:04:32;17.60;;;12.63;;
47155;SDS011;32908;52.344;16.858;2022-12-08T19:06:59;20.90;;;13.13;;
47155;SDS011;32908;52.344;16.858;2022-12-08T19:09:27;20.57;;;13.07;;
47155;SDS011;32908;52.344;16.858;2022-12-08T19:11:55;19.27;;;13.07;;
47155;SDS011;32908;52.344;16.858;2022-12-08T19:14:24;17.67;;;12.23;;
47155;SDS011;32908;52.344;16.858;2022-12-08T19:16:52;21.23;;;12.63;;
47155;SDS011;32908;52.344;16.858;2022-12-08T19:19:20;17.93;;;12.27;;
47155;SDS011;32908;52.344;16.858;2022-12-08T19:21:48;18.40;;;12.80;;
47155;SDS011;32908;52.344;16.858;2022-12-08T19:24:15;20.80;;;12.83;;
